Time;durP1;ratioP1;P1;durP2;ratioP2;P2;SDS_P1;SDS_P2;PMS_P1;PMS_P2;Temp;Humidity;BMP_temperature;BMP_pressure;BME280_temperature;BME280_humidity;BME280_pressure;Samples;Min_cycle;Max_cycle;Signal;HPM_P1;HPM_P2
2024/04/03 00:00:01;;;;;;;4.18;1.63;;;7.90;99.90;;;;;;5019050;28;20048;-67
2024/04/03 00:02:27;;;;;;;3.60;1.95;;;7.90;99.90;;;;;;5014661;28;20053;-66
2024/04/03 00:04:52;;;;;;;3.92;1.90;;;7.90;99.90;;;;;;5020391;28;20340;-66
2024/04/03 00:07:18;;;;;;;3.13;1.77;;;7.90;99.90;;;;;;5011528;28;20149;-66
2024/04/03 00:09:44;;;;;;;3.38;1.52;;;7.90;99.90;;;;;;5017324;28;20474;-66
2024/04/03 00:12:10;;;;;;;7.97;2.17;;;7.90;99.90;;;;;;5017279;28;20064;-67
2024/04/03 00:14:35;;;;;;;3.25;1.52;;;7.90;99.90;;;;;;5016939;28;20026;-67
2024/04/03 00:17:01;;;;;;;3.25;1.63;;;7.90;99.90;;;;;;5015827;28;20068;-66
2024/04/03 00:19:26;;;;;;;3.33;1.58;;;7.90;99.90;;;;;;5012915;28;20431;-66
2024/04/03 00:21:52;;;;;;;3.42;1.70;;;7.90;99.90;;;;;;5018983;28;20159;-66
2024/04/03 00:24:17;;;;;;;4.25;1.95;;;7.90;99.90;;;;;;5018924;28;20099;-66
2024/04/03 00:26:43;;;;;;;3.63;1.85;;;7.90;99.90;;;;;;5011801;28;20061;-65
2024/04/03 00:29:08;;;;;;;6.85;1.90;;;7.90;99.90;;;;;;5016551;28;20443;-67
2024/04/03 00:31:34;;;;;;;3.72;1.60;;;;;;;;;;5012921;28;20466;-65
2024/04/03 00:34:00;;;;;;;3.47;1.73;;;;;;;;;;5013103;28;20025;-66
2024/04/03 00:36:26;;;;;;;5.03;1.83;;;;;;;;;;5012774;28;20128;-66
2024/04/03 00:38:51;;;;;;;4.32;2.10;;;7.80;99.90;;;;;;5018287;28;20037;-66
2024/04/03 00:41:17;;;;;;;5.55;2.55;;;7.80;99.90;;;;;;5015083;28;20080;-66
2024/04/03 00:43:42;;;;;;;6.88;2.15;;;7.80;99.90;;;;;;5012609;28;20107;-66
2024/04/03 00:46:09;;;;;;;4.25;2.10;;;7.70;99.90;;;;;;5013491;28;20217;-66
2024/04/03 00:48:34;;;;;;;4.70;2.63;;;7.70;99.90;;;;;;5019256;28;20041;-66
2024/04/03 00:51:01;;;;;;;3.92;2.22;;;7.70;99.90;;;;;;5011692;28;20034;-66
2024/04/03 00:53:27;;;;;;;9.00;2.63;;;7.70;99.90;;;;;;5015280;28;20072;-68
2024/04/03 00:55:53;;;;;;;5.30;2.85;;;7.70;99.90;;;;;;5009094;28;20137;-67
2024/04/03 00:58:19;;;;;;;5.78;2.88;;;7.70;99.90;;;;;;5012273;28;20018;-66
2024/04/03 01:00:44;;;;;;;6.07;2.20;;;7.60;99.90;;;;;;5015214;28;20442;-66
2024/04/03 01:03:10;;;;;;;5.95;2.88;;;7.70;99.90;;;;;;5018440;28;20584;-66
2024/04/03 01:05:36;;;;;;;5.40;2.60;;;7.60;99.90;;;;;;5015231;28;20196;-66
2024/04/03 01:08:01;;;;;;;5.00;2.05;;;7.60;99.90;;;;;;5012242;28;20367;-66
2024/04/03 01:10:27;;;;;;;5.68;2.58;;;7.60;99.90;;;;;;5018066;28;20110;-67
2024/04/03 01:12:54;;;;;;;6.70;2.75;;;7.60;99.90;;;;;;5010272;28;20060;-66
2024/04/03 01:15:20;;;;;;;6.38;2.65;;;7.60;99.90;;;;;;5015189;28;20058;-66
2024/04/03 01:17:45;;;;;;;4.68;2.63;;;7.60;99.90;;;;;;5012265;28;20046;-66
2024/04/03 01:20:12;;;;;;;6.18;2.58;;;7.60;99.90;;;;;;5013233;28;20099;-66
2024/04/03 01:22:38;;;;;;;4.55;2.40;;;7.70;99.90;;;;;;5011067;28;20431;-65
2024/04/03 01:25:03;;;;;;;3.75;2.08;;;7.60;99.90;;;;;;5018939;28;20068;-66
2024/04/03 01:27:29;;;;;;;6.32;2.72;;;7.60;99.90;;;;;;5008046;28;20042;-66
2024/04/03 01:29:55;;;;;;;5.53;2.15;;;7.60;99.90;;;;;;5016007;28;20111;-66
2024/04/03 01:32:23;;;;;;;4.45;2.10;;;7.60;99.90;;;;;;5013315;28;20526;-66
2024/04/03 01:34:49;;;;;;;4.68;2.28;;;7.60;99.90;;;;;;5013818;28;20087;-65
2024/04/03 01:37:17;;;;;;;3.95;2.00;;;7.60;99.90;;;;;;5012113;28;20188;-66
2024/04/03 01:39:42;;;;;;;4.63;2.28;;;7.60;99.90;;;;;;5015961;28;20037;-66
2024/04/03 01:42:08;;;;;;;7.20;2.97;;;7.60;99.90;;;;;;5015683;28;20048;-66
2024/04/03 01:44:33;;;;;;;4.72;2.45;;;7.60;99.90;;;;;;5012671;28;20033;-66
2024/04/03 01:46:59;;;;;;;6.53;3.00;;;7.70;99.90;;;;;;5019868;28;20403;-65
2024/04/03 01:49:24;;;;;;;5.25;2.22;;;7.60;99.90;;;;;;5020478;28;20175;-66
2024/04/03 01:51:50;;;;;;;6.50;2.58;;;7.70;99.90;;;;;;5015363;28;20060;-66
2024/04/03 01:54:15;;;;;;;5.25;2.63;;;7.70;99.90;;;;;;5013149;28;20063;-65
2024/04/03 01:56:41;;;;;;;6.18;2.55;;;7.70;99.90;;;;;;5016378;28;20168;-67
2024/04/03 01:59:06;;;;;;;7.35;3.35;;;7.60;99.90;;;;;;5026080;28;20060;-65
2024/04/03 02:01:32;;;;;;;6.28;2.58;;;7.60;99.90;;;;;;5017795;28;20109;-65
2024/04/03 02:03:57;;;;;;;7.82;4.03;;;7.50;99.90;;;;;;5019801;28;20569;-66
2024/04/03 02:06:23;;;;;;;7.00;3.58;;;7.40;99.90;;;;;;5011674;28;20065;-66
2024/04/03 02:08:48;;;;;;;6.50;3.28;;;7.40;99.90;;;;;;5017987;28;20040;-66
2024/04/03 02:11:14;;;;;;;7.13;3.13;;;7.30;99.90;;;;;;5022758;28;20045;-66
2024/04/03 02:13:39;;;;;;;7.07;3.60;;;7.30;99.90;;;;;;5021010;28;20044;-66
2024/04/03 02:16:05;;;;;;;6.13;3.60;;;7.30;99.90;;;;;;5015657;28;20124;-66
2024/04/03 02:18:30;;;;;;;6.70;3.30;;;7.30;99.90;;;;;;5022638;28;20045;-65
2024/04/03 02:20:55;;;;;;;9.88;3.58;;;7.30;99.90;;;;;;5015102;28;20037;-66
2024/04/03 02:23:21;;;;;;;6.03;3.10;;;7.30;99.90;;;;;;5020311;28;20119;-66
2024/04/03 02:25:46;;;;;;;7.32;3.47;;;7.30;99.90;;;;;;5012007;28;20137;-66
2024/04/03 02:28:12;;;;;;;8.90;3.58;;;7.30;99.90;;;;;;5008848;28;20506;-67
2024/04/03 02:30:37;;;;;;;7.63;3.60;;;7.30;99.90;;;;;;5013048;28;20104;-66
2024/04/03 02:33:03;;;;;;;8.05;3.53;;;7.20;99.90;;;;;;5013765;28;20434;-66
2024/04/03 02:35:29;;;;;;;8.38;3.58;;;7.20;99.90;;;;;;5019190;28;20064;-66
2024/04/03 02:37:54;;;;;;;11.40;3.42;;;7.30;99.90;;;;;;5015705;28;20339;-67
2024/04/03 02:40:19;;;;;;;6.13;2.95;;;7.30;99.90;;;;;;5017158;28;20157;-67
2024/04/03 02:42:45;;;;;;;7.28;3.40;;;7.30;99.90;;;;;;5025734;28;20466;-66
2024/04/03 02:45:10;;;;;;;6.85;3.30;;;7.20;99.90;;;;;;5017305;28;20055;-66
2024/04/03 02:47:36;;;;;;;8.00;3.38;;;7.30;99.90;;;;;;5017268;28;20137;-66
2024/04/03 02:50:02;;;;;;;6.88;3.22;;;7.20;99.90;;;;;;5017213;28;20427;-66
2024/04/03 02:52:27;;;;;;;5.78;2.88;;;7.20;99.90;;;;;;5020262;28;20033;-66
2024/04/03 02:54:53;;;;;;;7.10;3.08;;;7.10;99.90;;;;;;5020405;28;20327;-66
2024/04/03 02:57:18;;;;;;;9.68;3.50;;;7.10;99.90;;;;;;5019075;28;20051;-66
2024/04/03 02:59:44;;;;;;;7.15;3.60;;;7.10;99.90;;;;;;5022085;28;20022;-66
2024/04/03 03:02:09;;;;;;;8.30;3.55;;;7.10;99.90;;;;;;5014985;28;20034;-66
2024/04/03 03:04:42;;;;;;;6.55;2.78;;;7.10;99.90;;;;;;5012982;28;20465;-66
2024/04/03 03:07:08;;;;;;;6.20;3.13;;;6.90;99.90;;;;;;5015162;28;20099;-66
2024/04/03 03:09:34;;;;;;;6.50;2.50;;;6.90;99.90;;;;;;5014583;28;20545;-66
2024/04/03 03:12:00;;;;;;;6.38;2.90;;;6.80;99.90;;;;;;5016102;28;20141;-66
2024/04/03 03:14:25;;;;;;;5.20;2.47;;;6.70;99.90;;;;;;5018310;28;20197;-66
2024/04/03 03:16:51;;;;;;;4.57;2.40;;;6.70;99.90;;;;;;5022577;28;20060;-66
2024/04/03 03:19:16;;;;;;;5.80;2.55;;;6.60;99.90;;;;;;5016071;28;20098;-65
2024/04/03 03:21:42;;;;;;;6.78;2.60;;;6.60;99.90;;;;;;5019101;28;20476;-67
2024/04/03 03:24:07;;;;;;;4.90;2.50;;;6.60;99.90;;;;;;5019741;28;20036;-66
2024/04/03 03:26:33;;;;;;;4.18;1.92;;;6.70;99.90;;;;;;5016417;28;20495;-65
2024/04/03 03:28:58;;;;;;;5.45;2.28;;;6.70;99.90;;;;;;5024500;28;20090;-66
2024/04/03 03:31:24;;;;;;;4.45;1.83;;;6.70;99.90;;;;;;5019409;28;20090;-66
2024/04/03 03:33:49;;;;;;;4.70;2.25;;;6.60;99.90;;;;;;5016584;28;20441;-66
2024/04/03 03:36:14;;;;;;;5.13;2.42;;;6.60;99.90;;;;;;5012487;28;20029;-63
2024/04/03 03:38:40;;;;;;;5.75;2.55;;;6.60;99.90;;;;;;5011975;28;20439;-64
2024/04/03 03:41:05;;;;;;;4.88;2.35;;;6.60;99.90;;;;;;5014607;28;20124;-64
2024/04/03 03:43:31;;;;;;;3.70;2.00;;;6.60;99.90;;;;;;5010014;28;20470;-63
2024/04/03 03:45:56;;;;;;;4.15;2.00;;;6.60;99.90;;;;;;5013413;28;20108;-63
2024/04/03 03:52:36;;;;;;;5.10;2.33;;;6.60;99.90;;;;;;5019477;28;20180;-63
2024/04/03 03:54:02;;;;;;;6.05;2.85;;;6.50;99.90;;;;;;5016018;28;20036;-63
2024/04/03 03:56:28;;;;;;;4.55;2.42;;;6.50;99.90;;;;;;5015229;28;20553;-63
2024/04/03 03:58:54;;;;;;;5.10;2.13;;;6.50;99.90;;;;;;5016212;28;20033;-63
2024/04/03 04:01:20;;;;;;;6.00;2.20;;;6.50;99.90;;;;;;5020266;28;20061;-63
2024/04/03 04:03:45;;;;;;;4.32;2.08;;;6.60;99.90;;;;;;5019402;28;20228;-64
2024/04/03 04:06:11;;;;;;;3.80;1.83;;;6.50;99.90;;;;;;5016592;28;20045;-64
2024/04/03 04:08:37;;;;;;;5.32;2.88;;;6.50;99.90;;;;;;5022165;28;20421;-64
2024/04/03 04:11:03;;;;;;;8.68;2.33;;;6.50;99.90;;;;;;5017771;28;20052;-64
2024/04/03 04:13:29;;;;;;;6.28;2.33;;;6.50;99.90;;;;;;5012046;28;20110;-64
2024/04/03 04:15:59;;;;;;;3.95;1.80;;;6.50;99.90;;;;;;5015716;28;20029;-63
2024/04/03 04:18:25;;;;;;;5.18;1.98;;;6.50;99.90;;;;;;5016391;28;20045;-63
2024/04/03 04:21:00;;;;;;;5.05;2.03;;;6.50;99.90;;;;;;5014225;28;20653;-64
2024/04/03 04:23:26;;;;;;;5.60;2.45;;;6.40;99.90;;;;;;5019672;28;20044;-63
2024/04/03 04:26:04;;;;;;;4.00;1.73;;;6.50;99.90;;;;;;5011539;28;20101;-64
2024/04/03 04:28:33;;;;;;;5.10;2.10;;;6.50;99.90;;;;;;5010242;28;20431;-62
2024/04/03 04:31:03;;;;;;;5.45;2.13;;;6.40;99.90;;;;;;5016602;28;20107;-62
2024/04/03 04:33:29;;;;;;;6.82;2.60;;;6.40;99.90;;;;;;5011126;28;20472;-63
2024/04/03 04:35:56;;;;;;;4.97;2.20;;;6.40;99.90;;;;;;5020258;28;20038;-63
2024/04/03 04:38:24;;;;;;;6.00;2.28;;;6.30;99.90;;;;;;5012491;28;20045;-63
2024/04/03 04:41:00;;;;;;;5.85;2.15;;;6.30;99.90;;;;;;5016996;28;20073;-62
2024/04/03 04:43:31;;;;;;;5.18;2.30;;;6.40;99.90;;;;;;5008166;28;20030;-62
2024/04/03 04:45:58;;;;;;;4.45;2.17;;;6.30;99.90;;;;;;5010318;28;20357;-63
2024/04/03 04:48:25;;;;;;;4.05;2.03;;;6.30;99.90;;;;;;5011875;28;20030;-63
2024/04/03 04:50:55;;;;;;;5.07;2.53;;;6.30;99.90;;;;;;5019022;28;20088;-63
2024/04/03 04:53:21;;;;;;;6.55;2.60;;;6.30;99.90;;;;;;5009026;28;20454;-64
2024/04/03 04:56:00;;;;;;;6.03;2.58;;;6.30;99.90;;;;;;5014474;28;20042;-62
2024/04/03 04:58:26;;;;;;;5.38;2.55;;;;;;;;;;5011056;28;20037;-62
2024/04/03 05:01:01;;;;;;;5.75;2.53;;;6.30;99.90;;;;;;5012273;28;20030;-65
2024/04/03 05:03:26;;;;;;;4.63;2.22;;;6.20;99.90;;;;;;5024137;28;20180;-66
2024/04/03 05:05:52;;;;;;;5.10;2.17;;;6.30;99.90;;;;;;5021011;28;20127;-65
2024/04/03 05:08:18;;;;;;;4.60;2.53;;;6.20;99.90;;;;;;5014470;28;20038;-66
2024/04/03 05:10:57;;;;;;;5.93;2.45;;;6.20;99.90;;;;;;5013972;28;20111;-66
2024/04/03 05:13:25;;;;;;;6.18;2.47;;;6.30;99.90;;;;;;5015715;28;20041;-65
2024/04/03 05:15:51;;;;;;;5.50;1.98;;;6.30;99.90;;;;;;5016311;28;20396;-66
2024/04/03 05:18:16;;;;;;;5.65;2.25;;;6.30;99.90;;;;;;5015122;28;20029;-67
2024/04/03 05:20:42;;;;;;;7.05;2.40;;;6.40;99.90;;;;;;5020961;28;20033;-66
2024/04/03 05:23:07;;;;;;;5.13;2.33;;;6.40;99.90;;;;;;5020918;28;20034;-66
2024/04/03 05:25:33;;;;;;;6.35;2.67;;;6.30;99.90;;;;;;5015616;28;20379;-66
2024/04/03 05:27:59;;;;;;;6.88;2.28;;;6.30;99.90;;;;;;5016387;28;20037;-66
2024/04/03 05:30:24;;;;;;;6.57;2.13;;;6.30;99.90;;;;;;5014169;28;20076;-67
2024/04/03 05:32:51;;;;;;;5.05;2.08;;;6.30;99.90;;;;;;5015034;28;20368;-66
2024/04/03 05:35:17;;;;;;;6.40;2.30;;;6.40;99.90;;;;;;5012582;28;20051;-66
2024/04/03 05:37:45;;;;;;;7.32;2.47;;;6.40;99.90;;;;;;5011337;28;20045;-67
2024/04/03 05:40:12;;;;;;;7.25;2.45;;;6.50;99.90;;;;;;5008324;28;20042;-67
2024/04/03 05:42:37;;;;;;;6.57;2.63;;;6.50;99.90;;;;;;5005625;28;20648;-66
2024/04/03 05:45:03;;;;;;;5.50;2.30;;;6.60;99.90;;;;;;5015220;28;20113;-66
2024/04/03 05:47:29;;;;;;;4.93;1.90;;;6.60;99.90;;;;;;5014326;28;20432;-66
2024/04/03 05:49:54;;;;;;;6.22;2.38;;;6.60;99.90;;;;;;5022850;28;20060;-67
2024/04/03 05:52:21;;;;;;;5.63;2.20;;;6.60;99.90;;;;;;5011171;28;20038;-66
2024/04/03 05:54:46;;;;;;;5.85;2.67;;;6.60;99.90;;;;;;5007997;28;20129;-66
2024/04/03 05:57:13;;;;;;;5.32;2.20;;;6.60;99.90;;;;;;5007192;28;20109;-67
2024/04/03 05:59:38;;;;;;;7.00;2.50;;;6.60;99.90;;;;;;5013168;28;20481;-66
2024/04/03 06:02:04;;;;;;;5.32;2.35;;;6.70;99.90;;;;;;5018609;28;20050;-68
2024/04/03 06:04:29;;;;;;;6.65;2.45;;;6.70;99.90;;;;;;5012213;28;20374;-66
2024/04/03 06:06:56;;;;;;;6.35;2.60;;;6.70;99.90;;;;;;5012274;28;20167;-67
2024/04/03 06:09:22;;;;;;;6.18;2.33;;;6.60;99.90;;;;;;5015168;28;20188;-66
2024/04/03 06:11:47;;;;;;;7.95;2.60;;;6.60;99.90;;;;;;5009082;28;20526;-66
2024/04/03 06:14:12;;;;;;;5.90;3.03;;;6.60;99.90;;;;;;5010403;28;20128;-67
2024/04/03 06:16:38;;;;;;;6.88;2.75;;;6.70;99.90;;;;;;5019101;28;20044;-67
2024/04/03 06:19:05;;;;;;;7.80;2.97;;;6.70;99.90;;;;;;5017634;28;20033;-66
2024/04/03 06:21:31;;;;;;;6.38;2.72;;;6.70;99.90;;;;;;5008768;28;20407;-67
2024/04/03 06:23:58;;;;;;;6.13;3.00;;;6.70;99.90;;;;;;5012523;28;20144;-68
2024/04/03 06:26:23;;;;;;;6.72;3.03;;;6.80;99.90;;;;;;5014562;28;20048;-66
2024/04/03 06:28:49;;;;;;;6.25;2.88;;;7.00;99.90;;;;;;5017491;28;20026;-67
2024/04/03 06:31:14;;;;;;;7.30;2.88;;;7.10;99.90;;;;;;5015969;28;20034;-67
2024/04/03 06:33:40;;;;;;;7.18;3.33;;;7.20;99.90;;;;;;5014821;28;20386;-67
2024/04/03 06:36:05;;;;;;;6.25;2.67;;;7.30;99.90;;;;;;5022445;28;20056;-67
2024/04/03 06:38:31;;;;;;;7.55;2.88;;;7.50;99.90;;;;;;5023899;28;20125;-67
2024/04/03 06:40:57;;;;;;;8.63;3.17;;;7.50;99.90;;;;;;5020312;28;20108;-67
2024/04/03 06:43:22;;;;;;;9.25;3.50;;;7.60;99.90;;;;;;5023143;28;20036;-66
2024/04/03 06:45:55;;;;;;;7.60;2.80;;;7.40;99.10;;;;;;5026303;28;20140;-66
2024/04/03 06:48:21;;;;;;;5.55;2.60;;;7.60;99.70;;;;;;5024123;28;20057;-67
2024/04/03 06:50:53;;;;;;;8.57;3.00;;;7.70;99.60;;;;;;5018849;28;20410;-65
2024/04/03 06:53:20;;;;;;;6.07;3.28;;;7.80;99.40;;;;;;5011414;28;20041;-66
2024/04/03 06:55:56;;;;;;;7.15;2.75;;;7.80;99.20;;;;;;5015990;28;20376;-65
2024/04/03 06:58:22;;;;;;;6.78;2.72;;;7.80;99.10;;;;;;5016884;28;20343;-66
2024/04/03 07:00:48;;;;;;;7.15;2.83;;;7.70;99.10;;;;;;5015416;28;20123;-66
2024/04/03 07:03:14;;;;;;;7.18;3.05;;;7.60;98.80;;;;;;5026983;28;20151;-66
2024/04/03 07:05:40;;;;;;;5.07;2.63;;;7.50;98.80;;;;;;5027838;28;20549;-65
2024/04/03 07:08:06;;;;;;;6.03;3.00;;;7.40;98.70;;;;;;5020395;28;20135;-65
2024/04/03 07:10:32;;;;;;;5.50;2.85;;;7.40;98.90;;;;;;5017985;28;20091;-66
2024/04/03 07:13:01;;;;;;;5.93;2.78;;;7.50;99.00;;;;;;5017003;28;20199;-65
2024/04/03 07:15:28;;;;;;;6.13;2.80;;;7.50;99.00;;;;;;5017035;28;20197;-65
2024/04/03 07:17:54;;;;;;;7.70;3.13;;;7.50;99.30;;;;;;5013285;28;20379;-64
2024/04/03 07:20:20;;;;;;;4.32;1.83;;;7.50;99.30;;;;;;5010888;28;20061;-65
2024/04/03 07:22:45;;;;;;;6.25;2.88;;;7.40;99.00;;;;;;5025045;28;20053;-65
2024/04/03 07:25:13;;;;;;;5.13;2.53;;;7.40;99.10;;;;;;5022681;28;20033;-65
2024/04/03 07:27:45;;;;;;;4.55;2.38;;;7.40;99.20;;;;;;5009286;28;20129;-66
2024/04/03 07:30:10;;;;;;;5.47;2.65;;;7.30;99.10;;;;;;5018295;28;20025;-65
2024/04/03 07:32:36;;;;;;;5.75;2.42;;;7.40;99.40;;;;;;5018167;28;20111;-65
2024/04/03 07:35:01;;;;;;;5.78;2.45;;;7.30;99.40;;;;;;5011577;28;20048;-66
2024/04/03 07:37:27;;;;;;;5.80;2.97;;;7.40;99.60;;;;;;5016894;28;20040;-66
2024/04/03 07:39:52;;;;;;;6.68;2.67;;;7.50;99.60;;;;;;5019030;28;20148;-65
2024/04/03 07:42:18;;;;;;;6.50;2.63;;;7.50;99.50;;;;;;5020042;28;20353;-65
2024/04/03 07:44:43;;;;;;;6.13;2.50;;;7.40;99.50;;;;;;5016338;28;20133;-65
2024/04/03 07:47:09;;;;;;;6.25;2.65;;;7.30;99.50;;;;;;5009921;28;20033;-65
2024/04/03 07:49:34;;;;;;;5.60;2.63;;;7.40;99.60;;;;;;5015515;28;20112;-65
2024/04/03 07:52:00;;;;;;;6.97;3.00;;;7.30;99.50;;;;;;5019507;28;20220;-65
2024/04/03 07:54:25;;;;;;;5.20;2.65;;;7.40;99.70;;;;;;5009608;28;20045;-66
2024/04/03 07:56:51;;;;;;;5.43;2.40;;;7.40;99.70;;;;;;5010974;28;20482;-65
2024/04/03 07:59:16;;;;;;;5.50;2.70;;;7.40;99.80;;;;;;5023661;28;20053;-65
2024/04/03 08:01:42;;;;;;;6.25;2.83;;;7.60;99.90;;;;;;5013993;28;20034;-65
2024/04/03 08:04:08;;;;;;;6.88;3.05;;;7.80;99.90;;;;;;5014334;28;20073;-65
2024/04/03 08:06:33;;;;;;;7.70;3.45;;;7.80;99.90;;;;;;4982023;28;20165;-65
2024/04/03 08:08:59;;;;;;;8.32;3.53;;;7.80;99.90;;;;;;5018234;28;20114;-65
2024/04/03 08:11:24;;;;;;;7.97;3.40;;;7.70;99.80;;;;;;5012774;28;20033;-65
2024/04/03 08:13:50;;;;;;;9.52;3.88;;;7.80;99.70;;;;;;5019151;28;20048;-65
2024/04/03 08:16:15;;;;;;;10.85;4.40;;;7.80;99.80;;;;;;5017679;28;20106;-65
2024/04/03 08:18:41;;;;;;;10.68;4.07;;;7.90;99.80;;;;;;5016036;28;20391;-66
2024/04/03 08:21:06;;;;;;;9.52;4.72;;;8.00;99.80;;;;;;5009722;28;20021;-65
2024/04/03 08:23:33;;;;;;;11.45;4.40;;;8.00;99.40;;;;;;5021412;28;20141;-65
2024/04/03 08:26:07;;;;;;;8.75;4.10;;;8.10;99.50;;;;;;5015872;28;20437;-65
2024/04/03 08:28:35;;;;;;;9.77;4.10;;;8.00;99.40;;;;;;5025848;28;20076;-66
2024/04/03 08:31:01;;;;;;;12.35;4.80;;;8.00;99.50;;;;;;5013108;28;20048;-66
2024/04/03 08:33:26;;;;;;;9.85;5.20;;;8.10;99.30;;;;;;5016453;28;20145;-65
2024/04/03 08:36:02;;;;;;;9.40;4.57;;;8.10;99.50;;;;;;5014704;28;20041;-66
2024/04/03 08:38:27;;;;;;;11.48;5.50;;;8.20;99.50;;;;;;5014660;28;20377;-65
2024/04/03 08:40:55;;;;;;;11.07;5.53;;;8.20;99.50;;;;;;5025079;28;20053;-66
2024/04/03 08:43:21;;;;;;;10.77;5.38;;;8.10;99.60;;;;;;5022572;28;20029;-65
2024/04/03 08:45:48;;;;;;;9.10;4.55;;;8.00;99.30;;;;;;5015713;28;20033;-65
2024/04/03 08:48:20;;;;;;;11.00;5.38;;;8.20;99.50;;;;;;5014219;28;20026;-65
2024/04/03 08:50:46;;;;;;;12.40;5.13;;;8.10;99.50;;;;;;5016019;28;20029;-65
2024/04/03 08:53:16;;;;;;;10.50;5.47;;;8.30;99.60;;;;;;5016422;28;20053;-67
2024/04/03 08:55:45;;;;;;;11.63;5.57;;;8.40;99.70;;;;;;5016640;28;20113;-66
2024/04/03 08:58:10;;;;;;;11.73;5.03;;;8.40;99.60;;;;;;5021292;28;20056;-66
2024/04/03 09:00:37;;;;;;;10.68;4.93;;;8.50;99.50;;;;;;5020261;28;20089;-67
2024/04/03 09:03:03;;;;;;;10.00;4.75;;;8.60;99.60;;;;;;5022316;28;20387;-67
2024/04/03 09:05:28;;;;;;;9.30;4.38;;;8.60;99.60;;;;;;5022753;28;20490;-66
2024/04/03 09:08:01;;;;;;;9.60;4.15;;;8.60;99.30;;;;;;5020882;28;20033;-66
2024/04/03 09:10:29;;;;;;;10.60;4.57;;;8.50;99.20;;;;;;5012220;28;20037;-68
2024/04/03 09:12:54;;;;;;;9.20;4.68;;;8.50;99.10;;;;;;5010908;28;20056;-66
2024/04/03 09:15:20;;;;;;;9.85;5.15;;;8.60;99.20;;;;;;5017664;28;20046;-66
2024/04/03 09:17:47;;;;;;;10.90;4.40;;;8.60;99.30;;;;;;5012307;28;20136;-66
2024/04/03 09:20:22;;;;;;;9.05;4.32;;;8.60;99.10;;;;;;5008413;28;20044;-66
2024/04/03 09:22:48;;;;;;;10.38;4.70;;;8.70;99.00;;;;;;5017204;28;20041;-66
2024/04/03 09:25:13;;;;;;;12.18;5.63;;;8.80;99.00;;;;;;5018419;28;20037;-66
2024/04/03 09:27:39;;;;;;;9.38;4.93;;;9.10;99.40;;;;;;5013090;28;20064;-66
2024/04/03 09:30:06;;;;;;;11.30;5.25;;;9.10;99.00;;;;;;5016128;28;20041;-66
2024/04/03 09:32:33;;;;;;;10.80;5.07;;;9.30;99.10;;;;;;5016101;28;20078;-67
2024/04/03 09:34:59;;;;;;;11.38;4.85;;;9.30;98.90;;;;;;5010752;28;20084;-66
2024/04/03 09:37:24;;;;;;;9.40;4.55;;;9.30;98.80;;;;;;5013066;28;20465;-66
2024/04/03 09:39:50;;;;;;;11.38;5.05;;;9.40;99.00;;;;;;5011039;28;20245;-64
2024/04/03 09:42:20;;;;;;;8.15;4.32;;;9.50;98.80;;;;;;5019362;28;20143;-65
2024/04/03 09:44:49;;;;;;;11.45;4.88;;;9.70;98.90;;;;;;5007574;28;20106;-63
2024/04/03 09:47:19;;;;;;;11.98;5.05;;;9.60;98.30;;;;;;5008378;28;20026;-64
2024/04/03 09:49:50;;;;;;;11.27;5.05;;;9.60;98.20;;;;;;5013783;28;20030;-63
2024/04/03 09:52:17;;;;;;;9.85;4.53;;;9.40;98.10;;;;;;5015140;28;20060;-65
2024/04/03 09:54:43;;;;;;;9.90;4.72;;;9.60;98.70;;;;;;5010642;28;20071;-64
2024/04/03 09:57:10;;;;;;;9.43;4.28;;;9.70;98.80;;;;;;5019417;28;20064;-64
2024/04/03 09:59:36;;;;;;;8.75;4.43;;;9.50;98.60;;;;;;5015994;28;20022;-64
2024/04/03 10:02:02;;;;;;;9.50;4.70;;;9.60;98.70;;;;;;5013962;28;20115;-64
2024/04/03 10:04:36;;;;;;;8.90;4.85;;;9.60;98.70;;;;;;5022046;28;20446;-65
2024/04/03 10:07:02;;;;;;;10.30;4.30;;;9.70;98.70;;;;;;5035208;28;20043;-65
2024/04/03 10:09:30;;;;;;;10.02;4.45;;;9.80;99.00;;;;;;5023581;28;20030;-63
2024/04/03 10:11:58;;;;;;;7.30;3.75;;;9.80;98.50;;;;;;5021284;28;20406;-64
2024/04/03 10:14:28;;;;;;;8.50;4.18;;;9.80;98.60;;;;;;5010468;28;20072;-67
2024/04/03 10:16:54;;;;;;;8.73;4.18;;;9.80;98.60;;;;;;5012819;28;20080;-66
2024/04/03 10:19:21;;;;;;;9.35;4.07;;;9.80;98.80;;;;;;5019485;28;20033;-67
2024/04/03 10:21:48;;;;;;;7.25;3.58;;;9.80;98.80;;;;;;5013204;28;20038;-66
2024/04/03 10:24:13;;;;;;;8.15;4.35;;;9.70;98.70;;;;;;5013273;28;20466;-67
2024/04/03 10:26:40;;;;;;;8.20;3.85;;;9.60;98.80;;;;;;5018309;28;20116;-66
2024/04/03 10:29:05;;;;;;;8.38;4.13;;;9.60;98.80;;;;;;5017151;28;20029;-66
2024/04/03 10:31:30;;;;;;;7.75;3.45;;;9.70;99.10;;;;;;5014945;28;20049;-67
2024/04/03 10:33:57;;;;;;;8.85;4.00;;;9.70;98.90;;;;;;5016465;28;20439;-66
2024/04/03 10:36:22;;;;;;;8.20;3.85;;;9.50;98.90;;;;;;5013840;28;20120;-66
2024/04/03 10:38:48;;;;;;;6.60;3.38;;;9.50;99.10;;;;;;5021383;28;20144;-66
2024/04/03 10:41:14;;;;;;;7.63;3.38;;;9.60;99.20;;;;;;5015638;28;20072;-67
2024/04/03 10:43:39;;;;;;;8.38;3.25;;;9.50;99.00;;;;;;5018970;28;20107;-67
2024/04/03 10:46:10;;;;;;;7.75;4.03;;;9.60;99.30;;;;;;5018902;28;20103;-66
2024/04/03 10:48:36;;;;;;;8.07;3.80;;;9.50;99.20;;;;;;5019678;28;20056;-67
2024/04/03 10:51:01;;;;;;;7.88;3.53;;;9.30;99.00;;;;;;5020085;28;20072;-67
2024/04/03 10:53:27;;;;;;;9.70;3.97;;;9.20;99.10;;;;;;5014358;28;20117;-66
2024/04/03 10:55:52;;;;;;;9.50;4.65;;;9.20;99.20;;;;;;5009250;28;20025;-66
2024/04/03 10:58:20;;;;;;;8.15;3.60;;;9.20;99.30;;;;;;5017171;28;20100;-68
2024/04/03 11:00:45;;;;;;;8.38;4.00;;;9.30;99.50;;;;;;5016964;28;20494;-67
2024/04/03 11:03:14;;;;;;;8.13;3.92;;;9.50;99.60;;;;;;5018403;28;20143;-67
2024/04/03 11:05:39;;;;;;;8.00;4.18;;;9.60;99.50;;;;;;5026358;28;20038;-66
2024/04/03 11:08:09;;;;;;;8.38;3.78;;;9.60;99.70;;;;;;5015325;28;20099;-66
2024/04/03 11:10:36;;;;;;;9.00;3.97;;;9.60;99.30;;;;;;5019724;28;20047;-66
2024/04/03 11:13:06;;;;;;;8.32;4.38;;;9.80;99.60;;;;;;5021118;28;20041;-66
2024/04/03 11:15:32;;;;;;;8.30;4.13;;;9.80;99.50;;;;;;5026212;28;20364;-67
2024/04/03 11:17:59;;;;;;;9.32;4.70;;;9.80;99.30;;;;;;5020175;28;20025;-66
2024/04/03 11:20:28;;;;;;;9.10;4.60;;;9.90;99.50;;;;;;5021205;28;20169;-68
2024/04/03 11:22:58;;;;;;;9.13;4.28;;;10.10;99.60;;;;;;5019262;28;20036;-66
2024/04/03 11:25:28;;;;;;;8.85;4.30;;;10.30;99.40;;;;;;5018993;28;20033;-67
2024/04/03 11:27:55;;;;;;;7.35;3.95;;;10.20;99.30;;;;;;5014264;28;20051;-66
2024/04/03 11:30:21;;;;;;;7.75;4.20;;;10.40;99.20;;;;;;5021599;28;20033;-67
2024/04/03 11:32:46;;;;;;;9.93;4.53;;;10.60;99.20;;;;;;5018209;28;20041;-66
2024/04/03 11:35:13;;;;;;;8.82;4.63;;;10.80;99.20;;;;;;5015810;28;20105;-67
2024/04/03 11:37:38;;;;;;;8.93;4.55;;;10.60;98.60;;;;;;5018667;28;20123;-66
2024/04/03 11:40:06;;;;;;;8.73;4.15;;;10.70;98.50;;;;;;5014770;28;20465;-66
2024/04/03 11:42:33;;;;;;;7.20;3.47;;;10.50;98.20;;;;;;5018750;28;20063;-67
2024/04/03 11:44:59;;;;;;;8.77;3.83;;;10.50;98.00;;;;;;5013159;28;20037;-66
2024/04/03 11:47:24;;;;;;;5.97;3.55;;;10.60;98.20;;;;;;5014112;28;20059;-66
2024/04/03 11:49:50;;;;;;;8.23;3.50;;;10.80;98.80;;;;;;5012946;28;20126;-66
2024/04/03 11:52:16;;;;;;;7.07;3.53;;;10.70;98.50;;;;;;5015054;28;20203;-67
2024/04/03 11:54:42;;;;;;;7.57;3.85;;;10.70;98.10;;;;;;5019825;28;20037;-67
2024/04/03 11:57:08;;;;;;;6.85;3.15;;;10.70;98.00;;;;;;5018054;28;20085;-66
2024/04/03 11:59:34;;;;;;;6.97;3.30;;;10.70;96.90;;;;;;5017201;28;20025;-66
2024/04/03 12:02:00;;;;;;;8.25;3.70;;;10.90;97.80;;;;;;5017243;28;20022;-66
2024/04/03 12:04:26;;;;;;;8.10;3.13;;;11.00;98.10;;;;;;5016251;28;20040;-64
2024/04/03 12:06:52;;;;;;;5.82;2.88;;;10.90;97.50;;;;;;5011164;28;20034;-64
2024/04/03 12:09:17;;;;;;;5.97;3.00;;;10.90;97.60;;;;;;5010320;28;20167;-64
2024/04/03 12:11:43;;;;;;;5.70;2.67;;;10.80;97.40;;;;;;5013514;28;20051;-64
2024/04/03 12:14:08;;;;;;;4.95;2.60;;;10.70;97.60;;;;;;5011062;28;20052;-64
2024/04/03 12:16:37;;;;;;;6.53;2.83;;;10.80;97.80;;;;;;5017745;28;20466;-64
2024/04/03 12:19:13;;;;;;;5.20;2.30;;;10.60;97.90;;;;;;5017216;28;20085;-64
2024/04/03 12:21:44;;;;;;;5.93;2.75;;;10.80;98.20;;;;;;5012181;28;20040;-64
2024/04/03 12:24:10;;;;;;;4.28;2.08;;;10.90;98.20;;;;;;5025732;28;20025;-64
2024/04/03 12:26:39;;;;;;;7.50;3.00;;;10.90;98.10;;;;;;5015027;28;20481;-64
2024/04/03 12:29:05;;;;;;;6.20;2.38;;;10.90;98.20;;;;;;5006846;28;20048;-64
2024/04/03 12:31:31;;;;;;;6.13;2.42;;;11.00;98.20;;;;;;5013053;28;20077;-64
2024/04/03 12:33:57;;;;;;;5.60;2.55;;;11.00;98.00;;;;;;5016775;28;20079;-64
2024/04/03 12:36:23;;;;;;;5.80;2.33;;;10.90;97.50;;;;;;5009698;28;20030;-64
2024/04/03 12:38:49;;;;;;;3.35;2.00;;;11.00;98.00;;;;;;5012312;28;20410;-64
2024/04/03 12:41:14;;;;;;;3.55;1.95;;;10.90;97.60;;;;;;5017301;28;20077;-64
2024/04/03 12:43:40;;;;;;;5.18;2.40;;;11.00;97.60;;;;;;5012695;28;20029;-63
2024/04/03 12:46:06;;;;;;;4.47;2.00;;;10.80;97.50;;;;;;5011925;28;20066;-64
2024/04/03 12:48:32;;;;;;;4.13;2.53;;;10.70;97.50;;;;;;5016313;28;20056;-64
2024/04/03 12:50:58;;;;;;;4.97;2.30;;;10.60;97.80;;;;;;5021363;28;20044;-64
2024/04/03 12:53:24;;;;;;;3.97;1.73;;;10.50;98.10;;;;;;5015226;28;20037;-64